sensor_id;sensor_type;location;lat;lon;timestamp;P1;durP1;ratioP1;P2;durP2;ratioP2
3777;SDS011;1904;50.076;8.660;2023-10-31T00:00:22;6.23;;;2.23;;
3777;SDS011;1904;50.076;8.660;2023-10-31T00:02:48;1.70;;;1.60;;
3777;SDS011;1904;50.076;8.660;2023-10-31T00:05:14;2.10;;;2.00;;
3777;SDS011;1904;50.076;8.660;2023-10-31T00:07:40;2.30;;;1.83;;
3777;SDS011;1904;50.076;8.660;2023-10-31T00:10:05;4.70;;;1.57;;
3777;SDS011;1904;50.076;8.660;2023-10-31T00:12:32;1.50;;;1.40;;
3777;SDS011;1904;50.076;8.660;2023-10-31T00:14:57;2.30;;;1.60;;
3777;SDS011;1904;50.076;8.660;2023-10-31T00:17:23;2.07;;;1.50;;
3777;SDS011;1904;50.076;8.660;2023-10-31T00:19:49;1.37;;;1.23;;
3777;SDS011;1904;50.076;8.660;2023-10-31T00:22:14;4.83;;;1.30;;
3777;SDS011;1904;50.076;8.660;2023-10-31T00:24:40;3.67;;;1.23;;
3777;SDS011;1904;50.076;8.660;2023-10-31T00:27:06;3.30;;;1.13;;
3777;SDS011;1904;50.076;8.660;2023-10-31T00:29:31;1.47;;;1.27;;
3777;SDS011;1904;50.076;8.660;2023-10-31T00:31:57;1.23;;;0.90;;
3777;SDS011;1904;50.076;8.660;2023-10-31T00:34:22;1.43;;;1.33;;
3777;SDS011;1904;50.076;8.660;2023-10-31T00:36:49;1.90;;;1.30;;
3777;SDS011;1904;50.076;8.660;2023-10-31T00:39:14;6.10;;;1.00;;
3777;SDS011;1904;50.076;8.660;2023-10-31T00:41:43;0.83;;;0.80;;
3777;SDS011;1904;50.076;8.660;2023-10-31T00:44:12;2.90;;;0.90;;
3777;SDS011;1904;50.076;8.660;2023-10-31T00:46:38;0.97;;;0.70;;
3777;SDS011;1904;50.076;8.660;2023-10-31T00:49:04;0.90;;;0.70;;
3777;SDS011;1904;50.076;8.660;2023-10-31T00:51:30;8.50;;;0.90;;
3777;SDS011;1904;50.076;8.660;2023-10-31T00:53:57;1.40;;;0.90;;
3777;SDS011;1904;50.076;8.660;2023-10-31T00:56:27;1.27;;;0.77;;
3777;SDS011;1904;50.076;8.660;2023-10-31T00:58:53;0.83;;;0.80;;
3777;SDS011;1904;50.076;8.660;2023-10-31T01:14:25;0.60;;;0.60;;
3777;SDS011;1904;50.076;8.660;2023-10-31T01:16:51;1.40;;;0.67;;
3777;SDS011;1904;50.076;8.660;2023-10-31T01:19:17;0.60;;;0.60;;
3777;SDS011;1904;50.076;8.660;2023-10-31T01:21:43;0.63;;;0.63;;
3777;SDS011;1904;50.076;8.660;2023-10-31T01:24:08;1.33;;;0.80;;
3777;SDS011;1904;50.076;8.660;2023-10-31T01:26:39;4.43;;;0.57;;
3777;SDS011;1904;50.076;8.660;2023-10-31T01:29:05;0.50;;;0.50;;
3777;SDS011;1904;50.076;8.660;2023-10-31T01:38:15;5.53;;;0.70;;
3777;SDS011;1904;50.076;8.660;2023-10-31T01:40:41;3.67;;;0.70;;
3777;SDS011;1904;50.076;8.660;2023-10-31T01:46:29;4.00;;;0.70;;
3777;SDS011;1904;50.076;8.660;2023-10-31T01:55:38;1.27;;;1.00;;
3777;SDS011;1904;50.076;8.660;2023-10-31T02:01:26;5.60;;;0.80;;
3777;SDS011;1904;50.076;8.660;2023-10-31T02:03:53;7.93;;;0.70;;
3777;SDS011;1904;50.076;8.660;2023-10-31T02:06:19;3.20;;;0.70;;
3777;SDS011;1904;50.076;8.660;2023-10-31T02:08:46;0.70;;;0.70;;
3777;SDS011;1904;50.076;8.660;2023-10-31T02:11:13;0.70;;;0.70;;
3777;SDS011;1904;50.076;8.660;2023-10-31T02:13:39;0.70;;;0.70;;
3777;SDS011;1904;50.076;8.660;2023-10-31T02:16:05;0.67;;;0.67;;
3777;SDS011;1904;50.076;8.660;2023-10-31T02:22:08;1.53;;;0.60;;
3777;SDS011;1904;50.076;8.660;2023-10-31T02:24:33;1.33;;;0.60;;
3777;SDS011;1904;50.076;8.660;2023-10-31T02:30:03;0.60;;;0.60;;
3777;SDS011;1904;50.076;8.660;2023-10-31T02:32:30;2.00;;;0.70;;
3777;SDS011;1904;50.076;8.660;2023-10-31T02:34:55;1.73;;;0.60;;
3777;SDS011;1904;50.076;8.660;2023-10-31T02:37:21;2.83;;;0.67;;
3777;SDS011;1904;50.076;8.660;2023-10-31T02:39:46;0.50;;;0.50;;
3777;SDS011;1904;50.076;8.660;2023-10-31T02:42:12;0.50;;;0.50;;
3777;SDS011;1904;50.076;8.660;2023-10-31T02:44:38;0.73;;;0.70;;
3777;SDS011;1904;50.076;8.660;2023-10-31T02:47:09;3.27;;;0.70;;
3777;SDS011;1904;50.076;8.660;2023-10-31T02:49:35;2.83;;;0.70;;
3777;SDS011;1904;50.076;8.660;2023-10-31T02:52:01;2.40;;;0.80;;
3777;SDS011;1904;50.076;8.660;2023-10-31T02:54:27;1.50;;;0.87;;
3777;SDS011;1904;50.076;8.660;2023-10-31T02:56:52;0.60;;;0.60;;
3777;SDS011;1904;50.076;8.660;2023-10-31T02:59:18;2.17;;;0.67;;
3777;SDS011;1904;50.076;8.660;2023-10-31T03:05:05;0.70;;;0.50;;
3777;SDS011;1904;50.076;8.660;2023-10-31T03:07:33;0.70;;;0.60;;
3777;SDS011;1904;50.076;8.660;2023-10-31T03:16:43;2.30;;;0.60;;
3777;SDS011;1904;50.076;8.660;2023-10-31T04:00:57;1.63;;;0.80;;
3777;SDS011;1904;50.076;8.660;2023-10-31T04:03:23;1.57;;;1.03;;
3777;SDS011;1904;50.076;8.660;2023-10-31T04:05:51;0.80;;;0.80;;
3777;SDS011;1904;50.076;8.660;2023-10-31T04:08:17;9.40;;;1.00;;
3777;SDS011;1904;50.076;8.660;2023-10-31T04:10:52;0.70;;;0.70;;
3777;SDS011;1904;50.076;8.660;2023-10-31T04:13:17;1.10;;;0.80;;
3777;SDS011;1904;50.076;8.660;2023-10-31T04:15:43;0.80;;;0.80;;
3777;SDS011;1904;50.076;8.660;2023-10-31T04:21:33;4.90;;;0.83;;
3777;SDS011;1904;50.076;8.660;2023-10-31T04:27:11;1.33;;;0.80;;
3777;SDS011;1904;50.076;8.660;2023-10-31T04:33:10;0.70;;;0.70;;
3777;SDS011;1904;50.076;8.660;2023-10-31T04:35:35;1.83;;;0.80;;
3777;SDS011;1904;50.076;8.660;2023-10-31T04:38:01;3.03;;;0.90;;
3777;SDS011;1904;50.076;8.660;2023-10-31T04:40:34;3.60;;;0.70;;
3777;SDS011;1904;50.076;8.660;2023-10-31T04:42:59;4.37;;;0.70;;
3777;SDS011;1904;50.076;8.660;2023-10-31T04:45:28;1.50;;;0.87;;
3777;SDS011;1904;50.076;8.660;2023-10-31T04:47:58;0.77;;;0.77;;
3777;SDS011;1904;50.076;8.660;2023-10-31T04:50:27;8.23;;;0.80;;
3777;SDS011;1904;50.076;8.660;2023-10-31T04:52:53;1.10;;;1.10;;
3777;SDS011;1904;50.076;8.660;2023-10-31T04:55:22;0.80;;;0.80;;
3777;SDS011;1904;50.076;8.660;2023-10-31T04:57:58;2.10;;;0.90;;
3777;SDS011;1904;50.076;8.660;2023-10-31T05:00:28;6.63;;;0.93;;
3777;SDS011;1904;50.076;8.660;2023-10-31T05:12:21;1.07;;;1.00;;
3777;SDS011;1904;50.076;8.660;2023-10-31T05:23:52;2.20;;;1.00;;
3777;SDS011;1904;50.076;8.660;2023-10-31T05:32:35;3.50;;;1.00;;
3777;SDS011;1904;50.076;8.660;2023-10-31T05:35:04;1.00;;;0.90;;
3777;SDS011;1904;50.076;8.660;2023-10-31T05:37:40;0.90;;;0.87;;
3777;SDS011;1904;50.076;8.660;2023-10-31T05:40:05;5.60;;;1.27;;
3777;SDS011;1904;50.076;8.660;2023-10-31T05:42:34;1.23;;;1.13;;
3777;SDS011;1904;50.076;8.660;2023-10-31T05:44:59;7.13;;;1.07;;
3777;SDS011;1904;50.076;8.660;2023-10-31T05:47:25;0.97;;;0.87;;
3777;SDS011;1904;50.076;8.660;2023-10-31T05:49:51;0.83;;;0.80;;
3777;SDS011;1904;50.076;8.660;2023-10-31T05:52:17;0.90;;;0.90;;
3777;SDS011;1904;50.076;8.660;2023-10-31T05:54:42;1.00;;;1.00;;
3777;SDS011;1904;50.076;8.660;2023-10-31T05:57:08;3.37;;;1.10;;
3777;SDS011;1904;50.076;8.660;2023-10-31T05:59:34;1.00;;;1.00;;
3777;SDS011;1904;50.076;8.660;2023-10-31T06:01:59;1.00;;;0.90;;
3777;SDS011;1904;50.076;8.660;2023-10-31T06:04:34;1.10;;;1.00;;
3777;SDS011;1904;50.076;8.660;2023-10-31T06:06:59;3.70;;;1.20;;
3777;SDS011;1904;50.076;8.660;2023-10-31T06:09:25;6.40;;;1.30;;
3777;SDS011;1904;50.076;8.660;2023-10-31T06:11:52;1.37;;;1.00;;
3777;SDS011;1904;50.076;8.660;2023-10-31T06:14:17;1.43;;;1.00;;
3777;SDS011;1904;50.076;8.660;2023-10-31T06:16:43;5.17;;;0.90;;
3777;SDS011;1904;50.076;8.660;2023-10-31T06:19:09;2.03;;;1.00;;
3777;SDS011;1904;50.076;8.660;2023-10-31T06:21:40;2.50;;;1.13;;
3777;SDS011;1904;50.076;8.660;2023-10-31T06:24:10;6.10;;;1.00;;
3777;SDS011;1904;50.076;8.660;2023-10-31T06:26:35;0.80;;;0.80;;
3777;SDS011;1904;50.076;8.660;2023-10-31T06:29:01;1.43;;;0.93;;
3777;SDS011;1904;50.076;8.660;2023-10-31T06:31:28;1.17;;;0.80;;
3777;SDS011;1904;50.076;8.660;2023-10-31T06:33:54;1.13;;;0.90;;
3777;SDS011;1904;50.076;8.660;2023-10-31T06:39:10;3.03;;;0.93;;
3777;SDS011;1904;50.076;8.660;2023-10-31T06:45:16;3.10;;;0.90;;
3777;SDS011;1904;50.076;8.660;2023-10-31T06:47:41;1.70;;;1.00;;
3777;SDS011;1904;50.076;8.660;2023-10-31T06:50:07;1.17;;;1.07;;
3777;SDS011;1904;50.076;8.660;2023-10-31T06:52:33;0.87;;;0.87;;
3777;SDS011;1904;50.076;8.660;2023-10-31T06:54:59;11.53;;;0.90;;
3777;SDS011;1904;50.076;8.660;2023-10-31T06:57:28;0.93;;;0.93;;
3777;SDS011;1904;50.076;8.660;2023-10-31T06:59:58;2.10;;;0.80;;
3777;SDS011;1904;50.076;8.660;2023-10-31T07:02:23;4.00;;;0.83;;
3777;SDS011;1904;50.076;8.660;2023-10-31T07:08:12;1.90;;;0.80;;
3777;SDS011;1904;50.076;8.660;2023-10-31T07:14:02;4.90;;;1.00;;
3777;SDS011;1904;50.076;8.660;2023-10-31T07:19:47;0.70;;;0.70;;
3777;SDS011;1904;50.076;8.660;2023-10-31T07:22:12;1.00;;;0.90;;
3777;SDS011;1904;50.076;8.660;2023-10-31T07:24:46;0.80;;;0.77;;
3777;SDS011;1904;50.076;8.660;2023-10-31T07:27:11;0.73;;;0.70;;
3777;SDS011;1904;50.076;8.660;2023-10-31T07:29:40;2.00;;;0.87;;
3777;SDS011;1904;50.076;8.660;2023-10-31T07:32:10;5.33;;;0.90;;
3777;SDS011;1904;50.076;8.660;2023-10-31T07:37:57;4.20;;;0.80;;
3777;SDS011;1904;50.076;8.660;2023-10-31T07:46:39;0.70;;;0.70;;
3777;SDS011;1904;50.076;8.660;2023-10-31T07:49:16;1.10;;;0.60;;
3777;SDS011;1904;50.076;8.660;2023-10-31T07:51:41;0.57;;;0.57;;
3777;SDS011;1904;50.076;8.660;2023-10-31T07:54:16;10.10;;;0.60;;
3777;SDS011;1904;50.076;8.660;2023-10-31T07:56:46;1.47;;;0.80;;
3777;SDS011;1904;50.076;8.660;2023-10-31T07:59:11;2.07;;;0.63;;
3777;SDS011;1904;50.076;8.660;2023-10-31T08:01:37;1.03;;;0.90;;
3777;SDS011;1904;50.076;8.660;2023-10-31T08:04:04;0.90;;;0.70;;
3777;SDS011;1904;50.076;8.660;2023-10-31T08:06:29;0.60;;;0.60;;
3777;SDS011;1904;50.076;8.660;2023-10-31T08:08:55;2.10;;;0.80;;
3777;SDS011;1904;50.076;8.660;2023-10-31T08:11:28;0.80;;;0.60;;
3777;SDS011;1904;50.076;8.660;2023-10-31T08:13:53;11.73;;;0.80;;
3777;SDS011;1904;50.076;8.660;2023-10-31T08:16:22;6.33;;;0.60;;
3777;SDS011;1904;50.076;8.660;2023-10-31T08:18:48;2.80;;;0.80;;
3777;SDS011;1904;50.076;8.660;2023-10-31T08:21:16;1.47;;;0.70;;
3777;SDS011;1904;50.076;8.660;2023-10-31T08:23:41;2.53;;;0.70;;
3777;SDS011;1904;50.076;8.660;2023-10-31T08:26:09;3.23;;;0.93;;
3777;SDS011;1904;50.076;8.660;2023-10-31T08:28:35;0.60;;;0.60;;
3777;SDS011;1904;50.076;8.660;2023-10-31T08:31:01;0.60;;;0.60;;
3777;SDS011;1904;50.076;8.660;2023-10-31T08:33:34;0.87;;;0.70;;
3777;SDS011;1904;50.076;8.660;2023-10-31T08:36:04;0.60;;;0.60;;
3777;SDS011;1904;50.076;8.660;2023-10-31T08:38:31;0.87;;;0.70;;
3777;SDS011;1904;50.076;8.660;2023-10-31T08:40:58;3.50;;;0.70;;
3777;SDS011;1904;50.076;8.660;2023-10-31T08:43:24;6.17;;;0.60;;
3777;SDS011;1904;50.076;8.660;2023-10-31T08:45:49;0.70;;;0.70;;
3777;SDS011;1904;50.076;8.660;2023-10-31T08:48:16;0.60;;;0.60;;
3777;SDS011;1904;50.076;8.660;2023-10-31T08:53:58;0.90;;;0.60;;
3777;SDS011;1904;50.076;8.660;2023-10-31T08:56:34;2.60;;;0.73;;
3777;SDS011;1904;50.076;8.660;2023-10-31T09:05:22;0.60;;;0.60;;
3777;SDS011;1904;50.076;8.660;2023-10-31T09:11:09;0.60;;;0.60;;
3777;SDS011;1904;50.076;8.660;2023-10-31T09:19:41;1.40;;;0.70;;
3777;SDS011;1904;50.076;8.660;2023-10-31T09:22:10;6.57;;;0.53;;
3777;SDS011;1904;50.076;8.660;2023-10-31T09:24:46;3.07;;;0.70;;
3777;SDS011;1904;50.076;8.660;2023-10-31T09:27:16;1.07;;;0.80;;
3777;SDS011;1904;50.076;8.660;2023-10-31T09:29:42;2.20;;;1.00;;
3777;SDS011;1904;50.076;8.660;2023-10-31T09:32:10;6.27;;;0.73;;
3777;SDS011;1904;50.076;8.660;2023-10-31T09:34:46;1.10;;;0.70;;
3777;SDS011;1904;50.076;8.660;2023-10-31T09:40:52;0.70;;;0.70;;
3777;SDS011;1904;50.076;8.660;2023-10-31T09:47:04;1.43;;;0.80;;
3777;SDS011;1904;50.076;8.660;2023-10-31T09:52:58;1.37;;;0.60;;
3777;SDS011;1904;50.076;8.660;2023-10-31T10:01:45;0.80;;;0.50;;
3777;SDS011;1904;50.076;8.660;2023-10-31T10:04:11;1.40;;;0.67;;
3777;SDS011;1904;50.076;8.660;2023-10-31T10:06:49;4.50;;;0.60;;
3777;SDS011;1904;50.076;8.660;2023-10-31T10:12:58;0.60;;;0.60;;
3777;SDS011;1904;50.076;8.660;2023-10-31T10:21:55;0.50;;;0.50;;
3777;SDS011;1904;50.076;8.660;2023-10-31T10:24:28;3.87;;;0.70;;
3777;SDS011;1904;50.076;8.660;2023-10-31T10:27:10;3.67;;;0.70;;
3777;SDS011;1904;50.076;8.660;2023-10-31T10:29:37;0.80;;;0.70;;
3777;SDS011;1904;50.076;8.660;2023-10-31T10:32:22;1.00;;;0.70;;
3777;SDS011;1904;50.076;8.660;2023-10-31T10:44:49;2.73;;;0.80;;
3777;SDS011;1904;50.076;8.660;2023-10-31T10:53:55;1.27;;;0.60;;
3777;SDS011;1904;50.076;8.660;2023-10-31T11:18:29;4.70;;;0.63;;
3777;SDS011;1904;50.076;8.660;2023-10-31T11:20:55;9.40;;;1.07;;
3777;SDS011;1904;50.076;8.660;2023-10-31T11:23:21;2.93;;;0.70;;
3777;SDS011;1904;50.076;8.660;2023-10-31T11:25:52;3.93;;;0.70;;
3777;SDS011;1904;50.076;8.660;2023-10-31T11:28:18;4.60;;;0.77;;
3777;SDS011;1904;50.076;8.660;2023-10-31T11:42:53;1.20;;;0.63;;
3777;SDS011;1904;50.076;8.660;2023-10-31T11:45:28;0.70;;;0.67;;
3777;SDS011;1904;50.076;8.660;2023-10-31T11:48:10;2.70;;;0.80;;
3777;SDS011;1904;50.076;8.660;2023-10-31T11:50:46;4.70;;;0.70;;
3777;SDS011;1904;50.076;8.660;2023-10-31T11:56:04;0.70;;;0.70;;
3777;SDS011;1904;50.076;8.660;2023-10-31T11:58:30;2.00;;;0.70;;
3777;SDS011;1904;50.076;8.660;2023-10-31T12:01:06;0.80;;;0.80;;
3777;SDS011;1904;50.076;8.660;2023-10-31T12:06:29;1.07;;;0.60;;
3777;SDS011;1904;50.076;8.660;2023-10-31T12:08:58;1.63;;;0.80;;
3777;SDS011;1904;50.076;8.660;2023-10-31T12:11:25;2.00;;;0.83;;
3777;SDS011;1904;50.076;8.660;2023-10-31T12:13:51;1.43;;;0.63;;
3777;SDS011;1904;50.076;8.660;2023-10-31T12:16:22;1.10;;;0.83;;
3777;SDS011;1904;50.076;8.660;2023-10-31T12:21:37;0.70;;;0.70;;
3777;SDS011;1904;50.076;8.660;2023-10-31T12:24:09;0.90;;;0.50;;
3777;SDS011;1904;50.076;8.660;2023-10-31T12:26:37;3.37;;;0.80;;
3777;SDS011;1904;50.076;8.660;2023-10-31T12:29:07;1.80;;;0.70;;
3777;SDS011;1904;50.076;8.660;2023-10-31T12:31:34;2.73;;;0.90;;
3777;SDS011;1904;50.076;8.660;2023-10-31T12:34:16;1.23;;;0.83;;
3777;SDS011;1904;50.076;8.660;2023-10-31T12:37:04;1.13;;;0.70;;
3777;SDS011;1904;50.076;8.660;2023-10-31T12:39:40;1.90;;;0.70;;
3777;SDS011;1904;50.076;8.660;2023-10-31T12:54:35;1.20;;;0.87;;
3777;SDS011;1904;50.076;8.660;2023-10-31T13:00:30;2.40;;;1.00;;
3777;SDS011;1904;50.076;8.660;2023-10-31T13:06:34;1.07;;;0.90;;
3777;SDS011;1904;50.076;8.660;2023-10-31T13:12:29;2.83;;;0.83;;
3777;SDS011;1904;50.076;8.660;2023-10-31T13:18:17;2.20;;;1.43;;
3777;SDS011;1904;50.076;8.660;2023-10-31T13:23:40;1.23;;;0.90;;
3777;SDS011;1904;50.076;8.660;2023-10-31T13:26:10;3.43;;;1.23;;
3777;SDS011;1904;50.076;8.660;2023-10-31T13:28:37;5.40;;;0.90;;
3777;SDS011;1904;50.076;8.660;2023-10-31T13:31:05;4.00;;;0.90;;
3777;SDS011;1904;50.076;8.660;2023-10-31T13:33:32;6.53;;;1.00;;
3777;SDS011;1904;50.076;8.660;2023-10-31T13:36:16;2.13;;;0.80;;
3777;SDS011;1904;50.076;8.660;2023-10-31T13:38:42;3.43;;;0.83;;
3777;SDS011;1904;50.076;8.660;2023-10-31T13:41:16;3.80;;;0.93;;
3777;SDS011;1904;50.076;8.660;2023-10-31T13:43:46;3.80;;;0.80;;
3777;SDS011;1904;50.076;8.660;2023-10-31T13:46:16;2.33;;;0.93;;
3777;SDS011;1904;50.076;8.660;2023-10-31T13:54:28;5.10;;;1.00;;
3777;SDS011;1904;50.076;8.660;2023-10-31T13:56:53;4.27;;;0.87;;
3777;SDS011;1904;50.076;8.660;2023-10-31T13:59:19;2.07;;;0.87;;
3777;SDS011;1904;50.076;8.660;2023-10-31T14:01:52;1.37;;;0.90;;
3777;SDS011;1904;50.076;8.660;2023-10-31T14:04:22;1.70;;;0.90;;
3777;SDS011;1904;50.076;8.660;2023-10-31T14:06:48;1.40;;;0.80;;
3777;SDS011;1904;50.076;8.660;2023-10-31T14:09:14;5.17;;;0.90;;
3777;SDS011;1904;50.076;8.660;2023-10-31T14:11:40;2.90;;;0.90;;
3777;SDS011;1904;50.076;8.660;2023-10-31T14:14:06;1.87;;;0.80;;
3777;SDS011;1904;50.076;8.660;2023-10-31T14:16:38;6.00;;;1.20;;
3777;SDS011;1904;50.076;8.660;2023-10-31T14:19:04;4.53;;;0.90;;
3777;SDS011;1904;50.076;8.660;2023-10-31T14:21:34;8.23;;;0.80;;
3777;SDS011;1904;50.076;8.660;2023-10-31T14:24:00;2.50;;;0.70;;
3777;SDS011;1904;50.076;8.660;2023-10-31T14:26:28;3.43;;;1.00;;
3777;SDS011;1904;50.076;8.660;2023-10-31T14:28:55;2.80;;;0.80;;
3777;SDS011;1904;50.076;8.660;2023-10-31T14:34:40;4.93;;;1.17;;
3777;SDS011;1904;50.076;8.660;2023-10-31T14:37:08;0.93;;;0.73;;
3777;SDS011;1904;50.076;8.660;2023-10-31T14:39:33;2.53;;;0.90;;
3777;SDS011;1904;50.076;8.660;2023-10-31T14:42:04;2.00;;;0.90;;
3777;SDS011;1904;50.076;8.660;2023-10-31T14:44:30;8.13;;;0.83;;
3777;SDS011;1904;50.076;8.660;2023-10-31T14:46:55;7.87;;;0.83;;
3777;SDS011;1904;50.076;8.660;2023-10-31T14:49:21;4.33;;;0.90;;
3777;SDS011;1904;50.076;8.660;2023-10-31T14:51:47;1.67;;;0.90;;
3777;SDS011;1904;50.076;8.660;2023-10-31T14:54:12;4.83;;;0.80;;
3777;SDS011;1904;50.076;8.660;2023-10-31T14:56:38;3.03;;;0.90;;
3777;SDS011;1904;50.076;8.660;2023-10-31T14:59:10;2.43;;;0.60;;
3777;SDS011;1904;50.076;8.660;2023-10-31T15:01:36;5.53;;;1.03;;
3777;SDS011;1904;50.076;8.660;2023-10-31T15:04:01;4.60;;;0.87;;
3777;SDS011;1904;50.076;8.660;2023-10-31T15:06:27;1.17;;;0.90;;
3777;SDS011;1904;50.076;8.660;2023-10-31T15:08:58;1.50;;;0.73;;
3777;SDS011;1904;50.076;8.660;2023-10-31T15:11:24;2.60;;;0.77;;
3777;SDS011;1904;50.076;8.660;2023-10-31T15:19:35;1.40;;;0.70;;
3777;SDS011;1904;50.076;8.660;2023-10-31T15:25:22;3.17;;;0.70;;
3777;SDS011;1904;50.076;8.660;2023-10-31T15:27:48;1.77;;;0.87;;
3777;SDS011;1904;50.076;8.660;2023-10-31T15:30:14;2.90;;;0.90;;
3777;SDS011;1904;50.076;8.660;2023-10-31T15:32:39;5.63;;;1.00;;
3777;SDS011;1904;50.076;8.660;2023-10-31T15:35:05;3.53;;;0.73;;
3777;SDS011;1904;50.076;8.660;2023-10-31T15:37:32;1.97;;;1.00;;
3777;SDS011;1904;50.076;8.660;2023-10-31T15:40:10;6.43;;;0.97;;
3777;SDS011;1904;50.076;8.660;2023-10-31T15:56:10;3.73;;;0.90;;
3777;SDS011;1904;50.076;8.660;2023-10-31T16:05:03;14.53;;;0.90;;
3777;SDS011;1904;50.076;8.660;2023-10-31T16:07:34;4.17;;;0.77;;
3777;SDS011;1904;50.076;8.660;2023-10-31T16:10:05;4.83;;;0.80;;
3777;SDS011;1904;50.076;8.660;2023-10-31T16:12:40;0.80;;;0.80;;
3777;SDS011;1904;50.076;8.660;2023-10-31T16:15:10;2.70;;;0.80;;
3777;SDS011;1904;50.076;8.660;2023-10-31T16:17:52;0.90;;;0.63;;
3777;SDS011;1904;50.076;8.660;2023-10-31T16:20:28;4.10;;;1.00;;
3777;SDS011;1904;50.076;8.660;2023-10-31T16:23:04;1.47;;;1.37;;
3777;SDS011;1904;50.076;8.660;2023-10-31T16:32:04;3.60;;;0.80;;
3777;SDS011;1904;50.076;8.660;2023-10-31T16:37:52;5.57;;;0.90;;
3777;SDS011;1904;50.076;8.660;2023-10-31T16:49:51;2.50;;;0.80;;
3777;SDS011;1904;50.076;8.660;2023-10-31T16:52:17;1.83;;;1.03;;
3777;SDS011;1904;50.076;8.660;2023-10-31T16:54:46;1.00;;;0.80;;
3777;SDS011;1904;50.076;8.660;2023-10-31T16:57:12;3.07;;;0.90;;
3777;SDS011;1904;50.076;8.660;2023-10-31T16:59:37;3.43;;;0.87;;
3777;SDS011;1904;50.076;8.660;2023-10-31T17:02:03;2.97;;;0.90;;
3777;SDS011;1904;50.076;8.660;2023-10-31T17:04:29;3.40;;;1.20;;
3777;SDS011;1904;50.076;8.660;2023-10-31T17:06:58;2.60;;;1.50;;
3777;SDS011;1904;50.076;8.660;2023-10-31T17:09:24;13.20;;;1.33;;
3777;SDS011;1904;50.076;8.660;2023-10-31T17:11:49;2.40;;;1.20;;
3777;SDS011;1904;50.076;8.660;2023-10-31T17:14:22;4.30;;;0.93;;
3777;SDS011;1904;50.076;8.660;2023-10-31T17:16:52;1.87;;;0.93;;
3777;SDS011;1904;50.076;8.660;2023-10-31T17:19:18;4.70;;;1.00;;
3777;SDS011;1904;50.076;8.660;2023-10-31T17:21:58;7.30;;;1.30;;
3777;SDS011;1904;50.076;8.660;2023-10-31T17:27:45;3.43;;;1.20;;
3777;SDS011;1904;50.076;8.660;2023-10-31T17:39:33;2.50;;;1.10;;
3777;SDS011;1904;50.076;8.660;2023-10-31T17:48:13;3.03;;;1.00;;
3777;SDS011;1904;50.076;8.660;2023-10-31T18:00:16;8.50;;;1.17;;
3777;SDS011;1904;50.076;8.660;2023-10-31T18:02:45;3.40;;;1.10;;
3777;SDS011;1904;50.076;8.660;2023-10-31T18:33:04;3.23;;;0.93;;
3777;SDS011;1904;50.076;8.660;2023-10-31T18:41:22;12.97;;;1.23;;
3777;SDS011;1904;50.076;8.660;2023-10-31T18:43:48;1.20;;;1.07;;
3777;SDS011;1904;50.076;8.660;2023-10-31T18:49:40;5.07;;;1.00;;
3777;SDS011;1904;50.076;8.660;2023-10-31T18:52:16;2.40;;;1.20;;
3777;SDS011;1904;50.076;8.660;2023-10-31T18:54:42;1.40;;;1.10;;
3777;SDS011;1904;50.076;8.660;2023-10-31T18:57:08;2.60;;;1.47;;
3777;SDS011;1904;50.076;8.660;2023-10-31T18:59:34;7.80;;;1.30;;
3777;SDS011;1904;50.076;8.660;2023-10-31T19:01:59;3.00;;;1.20;;
3777;SDS011;1904;50.076;8.660;2023-10-31T19:04:26;3.53;;;1.40;;
3777;SDS011;1904;50.076;8.660;2023-10-31T19:06:53;8.63;;;1.33;;
3777;SDS011;1904;50.076;8.660;2023-10-31T19:09:19;2.77;;;1.20;;
3777;SDS011;1904;50.076;8.660;2023-10-31T19:11:52;8.50;;;1.40;;
3777;SDS011;1904;50.076;8.660;2023-10-31T19:14:34;4.53;;;1.63;;
3777;SDS011;1904;50.076;8.660;2023-10-31T19:17:10;3.00;;;1.27;;
3777;SDS011;1904;50.076;8.660;2023-10-31T19:25:52;2.50;;;1.27;;
3777;SDS011;1904;50.076;8.660;2023-10-31T19:37:45;3.80;;;1.30;;
3777;SDS011;1904;50.076;8.660;2023-10-31T19:40:22;1.40;;;1.20;;
3777;SDS011;1904;50.076;8.660;2023-10-31T19:42:58;9.03;;;2.73;;
3777;SDS011;1904;50.076;8.660;2023-10-31T19:45:34;5.27;;;1.40;;
3777;SDS011;1904;50.076;8.660;2023-10-31T19:57:17;1.40;;;1.00;;
3777;SDS011;1904;50.076;8.660;2023-10-31T19:59:45;2.17;;;1.13;;
3777;SDS011;1904;50.076;8.660;2023-10-31T20:02:11;4.73;;;1.47;;
3777;SDS011;1904;50.076;8.660;2023-10-31T20:04:37;2.10;;;1.10;;
3777;SDS011;1904;50.076;8.660;2023-10-31T20:07:03;1.67;;;1.27;;
3777;SDS011;1904;50.076;8.660;2023-10-31T20:09:40;3.00;;;1.13;;
3777;SDS011;1904;50.076;8.660;2023-10-31T20:12:06;2.10;;;1.40;;
3777;SDS011;1904;50.076;8.660;2023-10-31T20:14:34;6.13;;;1.20;;
3777;SDS011;1904;50.076;8.660;2023-10-31T20:17:04;3.50;;;0.97;;
3777;SDS011;1904;50.076;8.660;2023-10-31T20:19:30;3.07;;;1.07;;
3777;SDS011;1904;50.076;8.660;2023-10-31T20:21:56;2.70;;;1.47;;
3777;SDS011;1904;50.076;8.660;2023-10-31T20:24:22;2.80;;;1.00;;
3777;SDS011;1904;50.076;8.660;2023-10-31T20:26:51;3.40;;;1.20;;
3777;SDS011;1904;50.076;8.660;2023-10-31T20:41:16;11.53;;;1.37;;
3777;SDS011;1904;50.076;8.660;2023-10-31T20:43:42;5.00;;;1.23;;
3777;SDS011;1904;50.076;8.660;2023-10-31T20:46:10;5.70;;;1.27;;
3777;SDS011;1904;50.076;8.660;2023-10-31T20:48:37;2.10;;;1.17;;
3777;SDS011;1904;50.076;8.660;2023-10-31T20:51:03;2.50;;;1.07;;
3777;SDS011;1904;50.076;8.660;2023-10-31T20:53:29;3.67;;;1.40;;
3777;SDS011;1904;50.076;8.660;2023-10-31T20:55:55;13.00;;;1.60;;
3777;SDS011;1904;50.076;8.660;2023-10-31T20:58:20;2.20;;;1.30;;
3777;SDS011;1904;50.076;8.660;2023-10-31T21:00:46;3.67;;;1.57;;
3777;SDS011;1904;50.076;8.660;2023-10-31T21:03:12;5.70;;;1.37;;
3777;SDS011;1904;50.076;8.660;2023-10-31T21:05:39;3.43;;;1.20;;
3777;SDS011;1904;50.076;8.660;2023-10-31T21:08:04;2.67;;;1.37;;
3777;SDS011;1904;50.076;8.660;2023-10-31T21:10:40;1.03;;;1.03;;
3777;SDS011;1904;50.076;8.660;2023-10-31T21:13:10;3.53;;;1.60;;
3777;SDS011;1904;50.076;8.660;2023-10-31T21:15:36;2.00;;;1.30;;
3777;SDS011;1904;50.076;8.660;2023-10-31T21:18:02;2.50;;;1.50;;
3777;SDS011;1904;50.076;8.660;2023-10-31T21:20:27;1.30;;;1.20;;
3777;SDS011;1904;50.076;8.660;2023-10-31T21:23:04;1.33;;;0.93;;
3777;SDS011;1904;50.076;8.660;2023-10-31T21:25:30;3.33;;;1.60;;
3777;SDS011;1904;50.076;8.660;2023-10-31T21:27:56;1.30;;;1.17;;
3777;SDS011;1904;50.076;8.660;2023-10-31T21:30:22;5.07;;;1.73;;
3777;SDS011;1904;50.076;8.660;2023-10-31T21:32:52;1.53;;;1.30;;
3777;SDS011;1904;50.076;8.660;2023-10-31T21:35:22;3.13;;;1.50;;
3777;SDS011;1904;50.076;8.660;2023-10-31T21:37:49;5.73;;;1.23;;
3777;SDS011;1904;50.076;8.660;2023-10-31T21:40:14;3.67;;;1.47;;
3777;SDS011;1904;50.076;8.660;2023-10-31T21:42:40;7.20;;;1.47;;
3777;SDS011;1904;50.076;8.660;2023-10-31T21:45:10;2.07;;;0.97;;
3777;SDS011;1904;50.076;8.660;2023-10-31T21:47:36;1.30;;;1.20;;
3777;SDS011;1904;50.076;8.660;2023-10-31T21:50:02;6.97;;;1.60;;
3777;SDS011;1904;50.076;8.660;2023-10-31T21:52:28;1.43;;;1.33;;
3777;SDS011;1904;50.076;8.660;2023-10-31T21:54:58;5.17;;;1.53;;
3777;SDS011;1904;50.076;8.660;2023-10-31T21:57:34;2.73;;;1.00;;
3777;SDS011;1904;50.076;8.660;2023-10-31T22:00:04;0.90;;;0.90;;
3777;SDS011;1904;50.076;8.660;2023-10-31T22:02:32;4.10;;;1.10;;
3777;SDS011;1904;50.076;8.660;2023-10-31T22:05:04;5.27;;;1.47;;
3777;SDS011;1904;50.076;8.660;2023-10-31T22:07:30;7.33;;;1.27;;
3777;SDS011;1904;50.076;8.660;2023-10-31T22:09:56;3.33;;;1.10;;
3777;SDS011;1904;50.076;8.660;2023-10-31T22:12:22;2.10;;;1.20;;
3777;SDS011;1904;50.076;8.660;2023-10-31T22:14:52;4.20;;;1.20;;
3777;SDS011;1904;50.076;8.660;2023-10-31T22:20:00;5.30;;;1.50;;
3777;SDS011;1904;50.076;8.660;2023-10-31T22:22:40;1.83;;;1.00;;
3777;SDS011;1904;50.076;8.660;2023-10-31T22:25:06;1.70;;;1.23;;
3777;SDS011;1904;50.076;8.660;2023-10-31T22:27:32;7.00;;;1.77;;
3777;SDS011;1904;50.076;8.660;2023-10-31T22:35:37;4.77;;;1.50;;
3777;SDS011;1904;50.076;8.660;2023-10-31T22:41:34;4.10;;;1.60;;
3777;SDS011;1904;50.076;8.660;2023-10-31T22:47:22;4.13;;;1.77;;
3777;SDS011;1904;50.076;8.660;2023-10-31T22:49:52;3.37;;;1.60;;
3777;SDS011;1904;50.076;8.660;2023-10-31T22:52:18;1.20;;;1.10;;
3777;SDS011;1904;50.076;8.660;2023-10-31T23:00:48;4.03;;;1.50;;
3777;SDS011;1904;50.076;8.660;2023-10-31T23:03:13;7.90;;;1.50;;
3777;SDS011;1904;50.076;8.660;2023-10-31T23:05:40;6.20;;;1.30;;
3777;SDS011;1904;50.076;8.660;2023-10-31T23:08:09;4.93;;;1.37;;